sensor_id;sensor_type;location;lat;lon;timestamp;temperature;humidity
7502;DHT22;3792;47.740;7.606;2023-10-19T00:00:52;14.20;99.90
7502;DHT22;3792;47.740;7.606;2023-10-19T00:03:21;14.20;99.90
7502;DHT22;3792;47.740;7.606;2023-10-19T00:05:50;14.20;99.90
7502;DHT22;3792;47.740;7.606;2023-10-19T00:08:16;14.20;99.90
7502;DHT22;3792;47.740;7.606;2023-10-19T00:10:47;14.30;99.90
7502;DHT22;3792;47.740;7.606;2023-10-19T00:13:15;14.50;99.90
7502;DHT22;3792;47.740;7.606;2023-10-19T00:15:46;14.50;99.90
7502;DHT22;3792;47.740;7.606;2023-10-19T00:18:17;14.50;99.90
7502;DHT22;3792;47.740;7.606;2023-10-19T00:20:51;14.60;99.90
7502;DHT22;3792;47.740;7.606;2023-10-19T00:23:21;14.60;99.90
7502;DHT22;3792;47.740;7.606;2023-10-19T00:25:55;14.60;99.90
7502;DHT22;3792;47.740;7.606;2023-10-19T00:28:22;14.60;99.90
7502;DHT22;3792;47.740;7.606;2023-10-19T00:30:51;14.60;99.90
7502;DHT22;3792;47.740;7.606;2023-10-19T00:33:19;14.70;99.90
7502;DHT22;3792;47.740;7.606;2023-10-19T00:35:46;14.60;99.90
7502;DHT22;3792;47.740;7.606;2023-10-19T00:38:16;14.60;99.90
7502;DHT22;3792;47.740;7.606;2023-10-19T00:41:05;14.50;99.90
7502;DHT22;3792;47.740;7.606;2023-10-19T00:43:33;14.50;99.90
7502;DHT22;3792;47.740;7.606;2023-10-19T00:46:03;14.50;99.90
7502;DHT22;3792;47.740;7.606;2023-10-19T00:48:35;14.50;99.90
7502;DHT22;3792;47.740;7.606;2023-10-19T00:51:05;14.50;99.90
7502;DHT22;3792;47.740;7.606;2023-10-19T00:53:46;14.50;99.90
7502;DHT22;3792;47.740;7.606;2023-10-19T00:56:15;14.60;99.90
7502;DHT22;3792;47.740;7.606;2023-10-19T00:58:45;14.60;99.90
7502;DHT22;3792;47.740;7.606;2023-10-19T01:01:22;14.60;99.90
7502;DHT22;3792;47.740;7.606;2023-10-19T01:03:50;14.60;99.90
7502;DHT22;3792;47.740;7.606;2023-10-19T01:06:22;14.60;99.90
7502;DHT22;3792;47.740;7.606;2023-10-19T01:08:49;14.50;99.90
7502;DHT22;3792;47.740;7.606;2023-10-19T01:11:17;14.50;99.90
7502;DHT22;3792;47.740;7.606;2023-10-19T01:13:46;14.40;99.90
7502;DHT22;3792;47.740;7.606;2023-10-19T01:16:14;14.40;99.90
7502;DHT22;3792;47.740;7.606;2023-10-19T01:18:48;14.40;99.90
7502;DHT22;3792;47.740;7.606;2023-10-19T01:21:22;14.40;99.90
7502;DHT22;3792;47.740;7.606;2023-10-19T01:23:52;14.40;99.90
7502;DHT22;3792;47.740;7.606;2023-10-19T01:26:20;14.40;99.90
7502;DHT22;3792;47.740;7.606;2023-10-19T01:28:51;14.40;99.90
7502;DHT22;3792;47.740;7.606;2023-10-19T01:31:25;14.40;99.90
7502;DHT22;3792;47.740;7.606;2023-10-19T01:34:03;14.50;99.90
7502;DHT22;3792;47.740;7.606;2023-10-19T01:36:31;14.50;99.90
7502;DHT22;3792;47.740;7.606;2023-10-19T01:39:04;14.60;99.90
7502;DHT22;3792;47.740;7.606;2023-10-19T01:41:35;14.50;99.90
7502;DHT22;3792;47.740;7.606;2023-10-19T01:44:01;14.50;99.90
7502;DHT22;3792;47.740;7.606;2023-10-19T01:46:33;14.50;99.90
7502;DHT22;3792;47.740;7.606;2023-10-19T01:49:02;14.50;99.90
7502;DHT22;3792;47.740;7.606;2023-10-19T01:51:29;14.50;99.90
7502;DHT22;3792;47.740;7.606;2023-10-19T01:53:59;14.50;99.90
7502;DHT22;3792;47.740;7.606;2023-10-19T01:56:27;14.40;99.90
7502;DHT22;3792;47.740;7.606;2023-10-19T01:58:55;14.40;99.90
7502;DHT22;3792;47.740;7.606;2023-10-19T02:01:23;14.40;99.90
7502;DHT22;3792;47.740;7.606;2023-10-19T02:03:55;14.40;99.90
7502;DHT22;3792;47.740;7.606;2023-10-19T02:06:24;14.40;99.90
7502;DHT22;3792;47.740;7.606;2023-10-19T02:08:55;14.40;99.90
7502;DHT22;3792;47.740;7.606;2023-10-19T02:11:23;14.40;99.90
7502;DHT22;3792;47.740;7.606;2023-10-19T02:13:53;14.30;99.90
7502;DHT22;3792;47.740;7.606;2023-10-19T02:16:20;14.40;99.90
7502;DHT22;3792;47.740;7.606;2023-10-19T02:18:48;14.40;99.90
7502;DHT22;3792;47.740;7.606;2023-10-19T02:21:15;14.40;99.90
7502;DHT22;3792;47.740;7.606;2023-10-19T02:23:47;14.40;99.90
7502;DHT22;3792;47.740;7.606;2023-10-19T02:26:16;14.40;99.90
7502;DHT22;3792;47.740;7.606;2023-10-19T02:28:46;14.40;99.90
7502;DHT22;3792;47.740;7.606;2023-10-19T02:31:13;14.30;99.90
7502;DHT22;3792;47.740;7.606;2023-10-19T02:33:46;14.30;99.90
7502;DHT22;3792;47.740;7.606;2023-10-19T02:36:16;14.20;99.90
7502;DHT22;3792;47.740;7.606;2023-10-19T02:38:45;14.20;99.90
7502;DHT22;3792;47.740;7.606;2023-10-19T02:41:15;14.20;99.90
7502;DHT22;3792;47.740;7.606;2023-10-19T02:43:43;14.10;99.90
7502;DHT22;3792;47.740;7.606;2023-10-19T02:46:14;14.00;99.90
7502;DHT22;3792;47.740;7.606;2023-10-19T02:48:43;14.00;99.90
7502;DHT22;3792;47.740;7.606;2023-10-19T02:51:11;14.00;99.90
7502;DHT22;3792;47.740;7.606;2023-10-19T02:53:39;14.00;99.90
7502;DHT22;3792;47.740;7.606;2023-10-19T02:56:12;14.10;99.90
7502;DHT22;3792;47.740;7.606;2023-10-19T02:58:42;14.10;99.90
7502;DHT22;3792;47.740;7.606;2023-10-19T03:01:17;14.10;99.90
7502;DHT22;3792;47.740;7.606;2023-10-19T03:03:48;14.10;99.90
7502;DHT22;3792;47.740;7.606;2023-10-19T03:06:18;14.10;99.90
7502;DHT22;3792;47.740;7.606;2023-10-19T03:08:47;14.10;99.90
7502;DHT22;3792;47.740;7.606;2023-10-19T03:11:13;14.20;99.90
7502;DHT22;3792;47.740;7.606;2023-10-19T03:13:42;14.20;99.90
7502;DHT22;3792;47.740;7.606;2023-10-19T03:16:09;14.20;99.90
7502;DHT22;3792;47.740;7.606;2023-10-19T03:18:37;14.20;99.90
7502;DHT22;3792;47.740;7.606;2023-10-19T03:21:05;14.20;99.90
7502;DHT22;3792;47.740;7.606;2023-10-19T03:23:32;14.20;99.90
7502;DHT22;3792;47.740;7.606;2023-10-19T03:26:00;14.20;99.90
7502;DHT22;3792;47.740;7.606;2023-10-19T03:28:45;14.10;99.90
7502;DHT22;3792;47.740;7.606;2023-10-19T03:31:12;14.00;99.90
7502;DHT22;3792;47.740;7.606;2023-10-19T03:33:45;14.00;99.90
7502;DHT22;3792;47.740;7.606;2023-10-19T03:36:21;14.00;99.90
7502;DHT22;3792;47.740;7.606;2023-10-19T03:38:48;14.00;99.90
7502;DHT22;3792;47.740;7.606;2023-10-19T03:41:17;14.00;99.90
7502;DHT22;3792;47.740;7.606;2023-10-19T03:43:47;14.10;99.90
7502;DHT22;3792;47.740;7.606;2023-10-19T03:46:17;14.10;99.90
7502;DHT22;3792;47.740;7.606;2023-10-19T03:48:51;14.10;99.90
7502;DHT22;3792;47.740;7.606;2023-10-19T03:51:26;14.20;99.90
7502;DHT22;3792;47.740;7.606;2023-10-19T03:53:53;14.20;99.90
7502;DHT22;3792;47.740;7.606;2023-10-19T03:56:21;14.20;99.90
7502;DHT22;3792;47.740;7.606;2023-10-19T03:58:49;14.20;99.90
7502;DHT22;3792;47.740;7.606;2023-10-19T04:01:17;14.20;99.90
7502;DHT22;3792;47.740;7.606;2023-10-19T04:03:45;14.10;99.90
7502;DHT22;3792;47.740;7.606;2023-10-19T04:06:14;14.20;99.90
7502;DHT22;3792;47.740;7.606;2023-10-19T04:08:41;14.20;99.90
7502;DHT22;3792;47.740;7.606;2023-10-19T04:11:10;14.20;99.90
7502;DHT22;3792;47.740;7.606;2023-10-19T04:13:48;14.20;99.90
7502;DHT22;3792;47.740;7.606;2023-10-19T04:16:19;14.20;99.90
7502;DHT22;3792;47.740;7.606;2023-10-19T04:18:46;14.20;99.90
7502;DHT22;3792;47.740;7.606;2023-10-19T04:21:15;14.20;99.90
7502;DHT22;3792;47.740;7.606;2023-10-19T04:23:42;14.20;99.90
7502;DHT22;3792;47.740;7.606;2023-10-19T04:26:12;14.20;99.90
7502;DHT22;3792;47.740;7.606;2023-10-19T04:28:40;14.10;99.90
7502;DHT22;3792;47.740;7.606;2023-10-19T04:31:16;14.10;99.90
7502;DHT22;3792;47.740;7.606;2023-10-19T04:33:45;14.00;99.90
7502;DHT22;3792;47.740;7.606;2023-10-19T04:36:17;14.00;99.90
7502;DHT22;3792;47.740;7.606;2023-10-19T04:38:47;14.00;99.90
7502;DHT22;3792;47.740;7.606;2023-10-19T04:41:14;14.00;99.90
7502;DHT22;3792;47.740;7.606;2023-10-19T04:43:41;14.00;99.90
7502;DHT22;3792;47.740;7.606;2023-10-19T04:46:15;14.10;99.90
7502;DHT22;3792;47.740;7.606;2023-10-19T04:48:44;14.10;99.90
7502;DHT22;3792;47.740;7.606;2023-10-19T04:51:11;14.20;99.90
7502;DHT22;3792;47.740;7.606;2023-10-19T04:53:40;14.30;99.90
7502;DHT22;3792;47.740;7.606;2023-10-19T04:56:08;14.40;99.90
7502;DHT22;3792;47.740;7.606;2023-10-19T04:58:36;14.50;99.90
7502;DHT22;3792;47.740;7.606;2023-10-19T05:01:03;14.60;99.90
7502;DHT22;3792;47.740;7.606;2023-10-19T05:03:31;14.60;99.90
7502;DHT22;3792;47.740;7.606;2023-10-19T05:05:58;14.70;99.90
7502;DHT22;3792;47.740;7.606;2023-10-19T05:08:25;14.70;99.90
7502;DHT22;3792;47.740;7.606;2023-10-19T05:10:55;14.70;99.90
7502;DHT22;3792;47.740;7.606;2023-10-19T05:13:25;14.70;99.90
7502;DHT22;3792;47.740;7.606;2023-10-19T05:15:52;14.80;99.90
7502;DHT22;3792;47.740;7.606;2023-10-19T05:18:20;14.80;99.90
7502;DHT22;3792;47.740;7.606;2023-10-19T05:20:47;14.80;99.90
7502;DHT22;3792;47.740;7.606;2023-10-19T05:23:15;14.90;99.90
7502;DHT22;3792;47.740;7.606;2023-10-19T05:25:43;14.90;99.90
7502;DHT22;3792;47.740;7.606;2023-10-19T05:28:11;15.00;99.90
7502;DHT22;3792;47.740;7.606;2023-10-19T05:30:38;15.00;99.90
7502;DHT22;3792;47.740;7.606;2023-10-19T05:33:05;15.00;99.90
7502;DHT22;3792;47.740;7.606;2023-10-19T05:35:32;15.00;99.90
7502;DHT22;3792;47.740;7.606;2023-10-19T05:38:06;15.00;99.90
7502;DHT22;3792;47.740;7.606;2023-10-19T05:40:33;15.00;99.90
7502;DHT22;3792;47.740;7.606;2023-10-19T05:43:02;15.00;99.90
7502;DHT22;3792;47.740;7.606;2023-10-19T05:45:31;15.10;99.90
7502;DHT22;3792;47.740;7.606;2023-10-19T05:47:58;15.00;99.90
7502;DHT22;3792;47.740;7.606;2023-10-19T05:50:25;15.10;99.90
7502;DHT22;3792;47.740;7.606;2023-10-19T05:52:54;15.10;99.90
7502;DHT22;3792;47.740;7.606;2023-10-19T05:55:21;15.10;99.90
7502;DHT22;3792;47.740;7.606;2023-10-19T05:57:48;15.10;99.90
7502;DHT22;3792;47.740;7.606;2023-10-19T06:00:16;15.10;99.90
7502;DHT22;3792;47.740;7.606;2023-10-19T06:02:48;15.00;99.90
7502;DHT22;3792;47.740;7.606;2023-10-19T06:05:16;15.10;99.90
7502;DHT22;3792;47.740;7.606;2023-10-19T06:07:44;15.00;99.90
7502;DHT22;3792;47.740;7.606;2023-10-19T06:10:12;15.00;99.90
7502;DHT22;3792;47.740;7.606;2023-10-19T06:12:42;15.10;99.90
7502;DHT22;3792;47.740;7.606;2023-10-19T06:15:10;15.10;99.90
7502;DHT22;3792;47.740;7.606;2023-10-19T06:17:38;15.10;99.90
7502;DHT22;3792;47.740;7.606;2023-10-19T06:20:09;15.10;99.90
7502;DHT22;3792;47.740;7.606;2023-10-19T06:22:46;15.10;99.90
7502;DHT22;3792;47.740;7.606;2023-10-19T06:25:16;15.20;99.90
7502;DHT22;3792;47.740;7.606;2023-10-19T06:27:45;15.20;99.90
7502;DHT22;3792;47.740;7.606;2023-10-19T06:30:13;15.30;99.90
7502;DHT22;3792;47.740;7.606;2023-10-19T06:32:46;15.40;99.90
7502;DHT22;3792;47.740;7.606;2023-10-19T06:35:15;15.40;99.90
7502;DHT22;3792;47.740;7.606;2023-10-19T06:37:43;15.50;99.90
7502;DHT22;3792;47.740;7.606;2023-10-19T06:40:11;15.60;99.90
7502;DHT22;3792;47.740;7.606;2023-10-19T06:42:40;15.60;99.90
7502;DHT22;3792;47.740;7.606;2023-10-19T06:45:08;15.70;99.90
7502;DHT22;3792;47.740;7.606;2023-10-19T06:47:39;15.70;99.90
7502;DHT22;3792;47.740;7.606;2023-10-19T06:50:08;15.70;99.90
7502;DHT22;3792;47.740;7.606;2023-10-19T06:52:37;15.80;99.90
7502;DHT22;3792;47.740;7.606;2023-10-19T06:55:05;15.90;99.90
7502;DHT22;3792;47.740;7.606;2023-10-19T06:57:37;16.00;99.90
7502;DHT22;3792;47.740;7.606;2023-10-19T07:00:04;16.00;99.90
7502;DHT22;3792;47.740;7.606;2023-10-19T07:02:40;16.00;99.90
7502;DHT22;3792;47.740;7.606;2023-10-19T07:05:10;16.00;99.90
7502;DHT22;3792;47.740;7.606;2023-10-19T07:07:40;16.00;99.90
7502;DHT22;3792;47.740;7.606;2023-10-19T07:10:07;16.00;99.90
7502;DHT22;3792;47.740;7.606;2023-10-19T07:12:35;16.10;99.90
7502;DHT22;3792;47.740;7.606;2023-10-19T07:15:04;16.00;99.90
7502;DHT22;3792;47.740;7.606;2023-10-19T07:17:33;16.00;99.90
7502;DHT22;3792;47.740;7.606;2023-10-19T07:20:00;16.00;99.90
7502;DHT22;3792;47.740;7.606;2023-10-19T07:22:31;16.00;99.90
7502;DHT22;3792;47.740;7.606;2023-10-19T07:25:00;16.10;99.90
7502;DHT22;3792;47.740;7.606;2023-10-19T07:27:31;16.00;99.90
7502;DHT22;3792;47.740;7.606;2023-10-19T07:29:59;16.00;99.90
7502;DHT22;3792;47.740;7.606;2023-10-19T07:32:26;16.00;99.90
7502;DHT22;3792;47.740;7.606;2023-10-19T07:34:53;15.90;99.90
7502;DHT22;3792;47.740;7.606;2023-10-19T07:37:21;15.90;99.90
7502;DHT22;3792;47.740;7.606;2023-10-19T07:39:48;15.90;99.90
7502;DHT22;3792;47.740;7.606;2023-10-19T07:42:19;15.80;99.90
7502;DHT22;3792;47.740;7.606;2023-10-19T07:44:47;15.80;99.90
7502;DHT22;3792;47.740;7.606;2023-10-19T07:47:15;15.70;99.90
7502;DHT22;3792;47.740;7.606;2023-10-19T07:49:42;15.70;99.90
7502;DHT22;3792;47.740;7.606;2023-10-19T07:52:09;15.60;99.90
7502;DHT22;3792;47.740;7.606;2023-10-19T07:54:37;15.60;99.90
7502;DHT22;3792;47.740;7.606;2023-10-19T07:57:04;15.50;99.90
7502;DHT22;3792;47.740;7.606;2023-10-19T07:59:33;15.60;99.90
7502;DHT22;3792;47.740;7.606;2023-10-19T08:02:01;15.70;99.90
7502;DHT22;3792;47.740;7.606;2023-10-19T08:04:29;15.70;99.90
7502;DHT22;3792;47.740;7.606;2023-10-19T08:06:57;15.70;99.90
7502;DHT22;3792;47.740;7.606;2023-10-19T08:09:24;15.60;99.90
7502;DHT22;3792;47.740;7.606;2023-10-19T08:11:57;15.60;99.90
7502;DHT22;3792;47.740;7.606;2023-10-19T08:14:25;15.60;99.90
7502;DHT22;3792;47.740;7.606;2023-10-19T08:16:52;15.60;99.90
7502;DHT22;3792;47.740;7.606;2023-10-19T08:19:19;15.70;99.90
7502;DHT22;3792;47.740;7.606;2023-10-19T08:21:47;15.70;99.90
7502;DHT22;3792;47.740;7.606;2023-10-19T08:24:14;15.70;99.90
7502;DHT22;3792;47.740;7.606;2023-10-19T08:26:44;15.70;99.90
7502;DHT22;3792;47.740;7.606;2023-10-19T08:29:11;15.70;99.90
7502;DHT22;3792;47.740;7.606;2023-10-19T08:31:39;15.70;99.90
7502;DHT22;3792;47.740;7.606;2023-10-19T08:34:08;15.70;99.90
7502;DHT22;3792;47.740;7.606;2023-10-19T08:36:36;15.70;99.90
7502;DHT22;3792;47.740;7.606;2023-10-19T08:39:05;15.70;99.90
7502;DHT22;3792;47.740;7.606;2023-10-19T08:41:33;15.70;99.90
7502;DHT22;3792;47.740;7.606;2023-10-19T08:44:03;15.70;99.90
7502;DHT22;3792;47.740;7.606;2023-10-19T08:46:33;15.70;99.90
7502;DHT22;3792;47.740;7.606;2023-10-19T08:49:01;15.70;99.90
7502;DHT22;3792;47.740;7.606;2023-10-19T08:51:30;15.70;99.90
7502;DHT22;3792;47.740;7.606;2023-10-19T08:53:57;15.70;99.90
7502;DHT22;3792;47.740;7.606;2023-10-19T08:56:24;15.70;99.90
7502;DHT22;3792;47.740;7.606;2023-10-19T08:58:51;15.60;99.90
7502;DHT22;3792;47.740;7.606;2023-10-19T09:01:19;15.70;99.90
7502;DHT22;3792;47.740;7.606;2023-10-19T09:03:50;15.70;99.90
7502;DHT22;3792;47.740;7.606;2023-10-19T09:06:18;15.60;99.90
7502;DHT22;3792;47.740;7.606;2023-10-19T09:08:48;15.60;99.90
7502;DHT22;3792;47.740;7.606;2023-10-19T09:11:15;15.60;99.90
7502;DHT22;3792;47.740;7.606;2023-10-19T09:13:46;15.60;99.90
7502;DHT22;3792;47.740;7.606;2023-10-19T09:16:15;15.60;99.90
7502;DHT22;3792;47.740;7.606;2023-10-19T09:18:42;15.60;99.90
7502;DHT22;3792;47.740;7.606;2023-10-19T09:21:11;15.70;99.90
7502;DHT22;3792;47.740;7.606;2023-10-19T09:23:51;15.70;99.90
7502;DHT22;3792;47.740;7.606;2023-10-19T09:26:18;15.70;99.90
7502;DHT22;3792;47.740;7.606;2023-10-19T09:28:50;15.80;99.90
7502;DHT22;3792;47.740;7.606;2023-10-19T09:31:17;15.80;99.90
7502;DHT22;3792;47.740;7.606;2023-10-19T09:33:48;15.90;99.90
7502;DHT22;3792;47.740;7.606;2023-10-19T09:36:15;16.00;99.90
7502;DHT22;3792;47.740;7.606;2023-10-19T09:38:45;16.00;99.90
7502;DHT22;3792;47.740;7.606;2023-10-19T09:41:17;16.00;99.90
7502;DHT22;3792;47.740;7.606;2023-10-19T09:43:45;16.10;99.90
7502;DHT22;3792;47.740;7.606;2023-10-19T09:46:18;16.10;99.90
7502;DHT22;3792;47.740;7.606;2023-10-19T09:48:47;16.10;99.90
7502;DHT22;3792;47.740;7.606;2023-10-19T09:51:16;16.10;99.90
7502;DHT22;3792;47.740;7.606;2023-10-19T09:53:47;16.10;99.90
7502;DHT22;3792;47.740;7.606;2023-10-19T09:56:21;16.10;99.90
7502;DHT22;3792;47.740;7.606;2023-10-19T09:58:53;16.10;99.90
7502;DHT22;3792;47.740;7.606;2023-10-19T10:01:20;16.10;99.90
7502;DHT22;3792;47.740;7.606;2023-10-19T10:03:49;16.10;99.90
7502;DHT22;3792;47.740;7.606;2023-10-19T10:06:28;16.10;99.90
7502;DHT22;3792;47.740;7.606;2023-10-19T10:08:56;16.10;99.90
7502;DHT22;3792;47.740;7.606;2023-10-19T10:11:27;16.10;99.90
7502;DHT22;3792;47.740;7.606;2023-10-19T10:13:55;16.20;99.90
7502;DHT22;3792;47.740;7.606;2023-10-19T10:16:23;16.20;99.90
7502;DHT22;3792;47.740;7.606;2023-10-19T10:18:54;16.30;99.90
7502;DHT22;3792;47.740;7.606;2023-10-19T10:21:24;16.30;99.90
7502;DHT22;3792;47.740;7.606;2023-10-19T10:23:53;16.40;99.90
7502;DHT22;3792;47.740;7.606;2023-10-19T10:26:22;16.40;99.90
7502;DHT22;3792;47.740;7.606;2023-10-19T10:29:10;16.50;99.90
7502;DHT22;3792;47.740;7.606;2023-10-19T10:31:42;16.50;99.90
7502;DHT22;3792;47.740;7.606;2023-10-19T10:34:10;16.60;99.90
7502;DHT22;3792;47.740;7.606;2023-10-19T10:36:58;16.60;99.90
7502;DHT22;3792;47.740;7.606;2023-10-19T10:39:26;16.60;99.90
7502;DHT22;3792;47.740;7.606;2023-10-19T10:41:56;16.60;99.90
7502;DHT22;3792;47.740;7.606;2023-10-19T10:44:39;16.60;99.90
7502;DHT22;3792;47.740;7.606;2023-10-19T10:47:09;16.60;99.90
7502;DHT22;3792;47.740;7.606;2023-10-19T10:49:49;16.70;99.90
7502;DHT22;3792;47.740;7.606;2023-10-19T10:52:27;16.60;99.90
7502;DHT22;3792;47.740;7.606;2023-10-19T10:54:55;16.60;99.90
7502;DHT22;3792;47.740;7.606;2023-10-19T10:57:23;16.60;99.90
7502;DHT22;3792;47.740;7.606;2023-10-19T11:00:07;16.60;99.90
7502;DHT22;3792;47.740;7.606;2023-10-19T11:02:35;16.60;99.90
7502;DHT22;3792;47.740;7.606;2023-10-19T11:05:06;16.60;99.90
7502;DHT22;3792;47.740;7.606;2023-10-19T11:07:37;16.60;99.90
7502;DHT22;3792;47.740;7.606;2023-10-19T11:10:05;16.70;99.90
7502;DHT22;3792;47.740;7.606;2023-10-19T11:12:32;16.70;99.90
7502;DHT22;3792;47.740;7.606;2023-10-19T11:15:00;16.70;99.90
7502;DHT22;3792;47.740;7.606;2023-10-19T11:17:43;16.70;99.90
7502;DHT22;3792;47.740;7.606;2023-10-19T11:20:21;16.60;99.90
7502;DHT22;3792;47.740;7.606;2023-10-19T11:22:49;16.60;99.90
7502;DHT22;3792;47.740;7.606;2023-10-19T11:25:20;16.60;99.90
7502;DHT22;3792;47.740;7.606;2023-10-19T11:27:47;16.60;99.90
7502;DHT22;3792;47.740;7.606;2023-10-19T11:30:22;16.60;99.90
7502;DHT22;3792;47.740;7.606;2023-10-19T11:32:51;16.60;99.90
7502;DHT22;3792;47.740;7.606;2023-10-19T11:35:23;16.60;99.90
7502;DHT22;3792;47.740;7.606;2023-10-19T11:37:53;16.60;99.90
7502;DHT22;3792;47.740;7.606;2023-10-19T11:40:20;16.60;99.90
7502;DHT22;3792;47.740;7.606;2023-10-19T11:42:48;16.60;99.90
7502;DHT22;3792;47.740;7.606;2023-10-19T11:45:16;16.60;99.90
7502;DHT22;3792;47.740;7.606;2023-10-19T11:47:43;16.60;99.90
7502;DHT22;3792;47.740;7.606;2023-10-19T11:50:12;16.60;99.90
7502;DHT22;3792;47.740;7.606;2023-10-19T11:52:41;16.60;99.90
7502;DHT22;3792;47.740;7.606;2023-10-19T11:55:09;16.50;99.90
7502;DHT22;3792;47.740;7.606;2023-10-19T11:57:38;16.50;99.90
7502;DHT22;3792;47.740;7.606;2023-10-19T12:00:06;16.40;99.90
7502;DHT22;3792;47.740;7.606;2023-10-19T12:02:36;16.40;99.90
7502;DHT22;3792;47.740;7.606;2023-10-19T12:05:05;16.40;99.90
7502;DHT22;3792;47.740;7.606;2023-10-19T12:07:37;16.40;99.90
7502;DHT22;3792;47.740;7.606;2023-10-19T12:10:06;16.40;99.90
7502;DHT22;3792;47.740;7.606;2023-10-19T12:12:34;16.40;99.90
7502;DHT22;3792;47.740;7.606;2023-10-19T12:15:02;16.40;99.90
7502;DHT22;3792;47.740;7.606;2023-10-19T12:17:30;16.30;99.90
7502;DHT22;3792;47.740;7.606;2023-10-19T12:19:58;16.30;99.90
7502;DHT22;3792;47.740;7.606;2023-10-19T12:22:25;16.30;99.90
7502;DHT22;3792;47.740;7.606;2023-10-19T12:24:55;16.20;99.90
7502;DHT22;3792;47.740;7.606;2023-10-19T12:27:23;16.20;99.90
7502;DHT22;3792;47.740;7.606;2023-10-19T12:29:51;16.20;99.90
7502;DHT22;3792;47.740;7.606;2023-10-19T12:32:19;16.30;99.90
7502;DHT22;3792;47.740;7.606;2023-10-19T12:34:46;16.30;99.90
7502;DHT22;3792;47.740;7.606;2023-10-19T12:37:18;16.30;99.90
7502;DHT22;3792;47.740;7.606;2023-10-19T12:39:45;16.30;99.90
7502;DHT22;3792;47.740;7.606;2023-10-19T12:42:16;16.30;99.90
7502;DHT22;3792;47.740;7.606;2023-10-19T12:44:43;16.30;99.90
7502;DHT22;3792;47.740;7.606;2023-10-19T12:47:10;16.40;99.90
7502;DHT22;3792;47.740;7.606;2023-10-19T12:49:39;16.40;99.90
7502;DHT22;3792;47.740;7.606;2023-10-19T12:52:07;16.40;99.90
7502;DHT22;3792;47.740;7.606;2023-10-19T12:54:34;16.40;99.90
7502;DHT22;3792;47.740;7.606;2023-10-19T12:57:02;16.40;99.90
7502;DHT22;3792;47.740;7.606;2023-10-19T12:59:34;16.40;99.90
7502;DHT22;3792;47.740;7.606;2023-10-19T13:02:03;16.40;99.90
7502;DHT22;3792;47.740;7.606;2023-10-19T13:04:34;16.40;99.90
7502;DHT22;3792;47.740;7.606;2023-10-19T13:07:02;16.40;99.90
7502;DHT22;3792;47.740;7.606;2023-10-19T13:09:29;16.40;99.90
7502;DHT22;3792;47.740;7.606;2023-10-19T13:11:58;16.40;99.90
7502;DHT22;3792;47.740;7.606;2023-10-19T13:14:25;16.40;99.90
7502;DHT22;3792;47.740;7.606;2023-10-19T13:16:54;16.40;99.90
7502;DHT22;3792;47.740;7.606;2023-10-19T13:19:21;16.50;99.90
7502;DHT22;3792;47.740;7.606;2023-10-19T13:21:52;16.50;99.90
7502;DHT22;3792;47.740;7.606;2023-10-19T13:24:20;16.60;99.90
7502;DHT22;3792;47.740;7.606;2023-10-19T13:26:47;16.60;99.90
7502;DHT22;3792;47.740;7.606;2023-10-19T13:29:14;16.60;99.90
7502;DHT22;3792;47.740;7.606;2023-10-19T13:31:43;16.60;99.90
7502;DHT22;3792;47.740;7.606;2023-10-19T13:34:16;16.60;99.90
7502;DHT22;3792;47.740;7.606;2023-10-19T13:36:43;16.60;99.90
7502;DHT22;3792;47.740;7.606;2023-10-19T13:39:12;16.70;99.90
7502;DHT22;3792;47.740;7.606;2023-10-19T13:41:42;16.60;99.90
7502;DHT22;3792;47.740;7.606;2023-10-19T13:44:10;16.70;99.90
7502;DHT22;3792;47.740;7.606;2023-10-19T13:46:38;16.70;99.90
7502;DHT22;3792;47.740;7.606;2023-10-19T13:49:05;16.80;99.90
7502;DHT22;3792;47.740;7.606;2023-10-19T13:51:33;16.90;99.90
7502;DHT22;3792;47.740;7.606;2023-10-19T13:54:01;17.00;99.90
7502;DHT22;3792;47.740;7.606;2023-10-19T13:56:28;17.00;99.90
7502;DHT22;3792;47.740;7.606;2023-10-19T13:58:55;17.00;99.90
7502;DHT22;3792;47.740;7.606;2023-10-19T14:01:22;17.00;99.90
7502;DHT22;3792;47.740;7.606;2023-10-19T14:03:52;17.00;99.90
7502;DHT22;3792;47.740;7.606;2023-10-19T14:06:20;16.90;99.90
7502;DHT22;3792;47.740;7.606;2023-10-19T14:08:51;16.90;99.90
7502;DHT22;3792;47.740;7.606;2023-10-19T14:11:18;16.90;99.90
7502;DHT22;3792;47.740;7.606;2023-10-19T14:13:45;16.90;99.90
7502;DHT22;3792;47.740;7.606;2023-10-19T14:16:12;16.80;99.90
7502;DHT22;3792;47.740;7.606;2023-10-19T14:18:39;16.80;99.90
7502;DHT22;3792;47.740;7.606;2023-10-19T14:21:13;16.80;99.90
7502;DHT22;3792;47.740;7.606;2023-10-19T14:23:40;16.80;99.90
7502;DHT22;3792;47.740;7.606;2023-10-19T14:26:10;16.80;99.90
7502;DHT22;3792;47.740;7.606;2023-10-19T14:28:37;16.70;99.90
7502;DHT22;3792;47.740;7.606;2023-10-19T14:31:07;16.70;99.90
7502;DHT22;3792;47.740;7.606;2023-10-19T14:33:34;16.70;99.90
7502;DHT22;3792;47.740;7.606;2023-10-19T14:36:03;16.70;99.90
7502;DHT22;3792;47.740;7.606;2023-10-19T14:38:31;16.70;99.90
7502;DHT22;3792;47.740;7.606;2023-10-19T14:40:59;16.70;99.90
7502;DHT22;3792;47.740;7.606;2023-10-19T14:43:27;16.60;99.90
7502;DHT22;3792;47.740;7.606;2023-10-19T14:45:55;16.60;99.90
7502;DHT22;3792;47.740;7.606;2023-10-19T14:48:24;16.60;99.90
7502;DHT22;3792;47.740;7.606;2023-10-19T14:50:52;16.60;99.90
7502;DHT22;3792;47.740;7.606;2023-10-19T14:53:20;16.50;99.90
7502;DHT22;3792;47.740;7.606;2023-10-19T14:55:47;16.50;99.90
7502;DHT22;3792;47.740;7.606;2023-10-19T14:58:14;16.40;99.90
7502;DHT22;3792;47.740;7.606;2023-10-19T15:00:43;16.40;99.90
7502;DHT22;3792;47.740;7.606;2023-10-19T15:03:12;16.40;99.90
7502;DHT22;3792;47.740;7.606;2023-10-19T15:05:42;16.30;99.90
7502;DHT22;3792;47.740;7.606;2023-10-19T15:08:09;16.30;99.90
7502;DHT22;3792;47.740;7.606;2023-10-19T15:10:40;16.30;99.90
7502;DHT22;3792;47.740;7.606;2023-10-19T15:13:08;16.30;99.90
7502;DHT22;3792;47.740;7.606;2023-10-19T15:15:35;16.30;99.90
7502;DHT22;3792;47.740;7.606;2023-10-19T15:18:04;16.20;99.90
7502;DHT22;3792;47.740;7.606;2023-10-19T15:20:32;16.20;99.90
7502;DHT22;3792;47.740;7.606;2023-10-19T15:23:01;16.20;99.90
7502;DHT22;3792;47.740;7.606;2023-10-19T15:25:28;16.20;99.90
7502;DHT22;3792;47.740;7.606;2023-10-19T15:27:55;16.20;99.90
7502;DHT22;3792;47.740;7.606;2023-10-19T15:30:23;16.10;99.90
7502;DHT22;3792;47.740;7.606;2023-10-19T15:32:52;16.10;99.90
7502;DHT22;3792;47.740;7.606;2023-10-19T15:35:21;16.10;99.90
7502;DHT22;3792;47.740;7.606;2023-10-19T15:37:50;16.10;99.90
7502;DHT22;3792;47.740;7.606;2023-10-19T15:40:20;16.00;99.90
7502;DHT22;3792;47.740;7.606;2023-10-19T15:42:47;16.00;99.90
7502;DHT22;3792;47.740;7.606;2023-10-19T15:45:15;16.10;99.90
7502;DHT22;3792;47.740;7.606;2023-10-19T15:47:44;16.10;99.90
7502;DHT22;3792;47.740;7.606;2023-10-19T15:50:11;16.20;99.90
7502;DHT22;3792;47.740;7.606;2023-10-19T15:52:41;16.30;99.90
7502;DHT22;3792;47.740;7.606;2023-10-19T15:55:09;16.40;99.90
7502;DHT22;3792;47.740;7.606;2023-10-19T15:57:37;16.40;99.90
7502;DHT22;3792;47.740;7.606;2023-10-19T16:00:07;16.40;99.90
7502;DHT22;3792;47.740;7.606;2023-10-19T16:02:39;16.50;99.90
7502;DHT22;3792;47.740;7.606;2023-10-19T16:05:06;16.60;99.90
7502;DHT22;3792;47.740;7.606;2023-10-19T16:07:34;16.70;99.90
7502;DHT22;3792;47.740;7.606;2023-10-19T16:10:05;16.70;99.90
7502;DHT22;3792;47.740;7.606;2023-10-19T16:12:34;16.80;99.90
7502;DHT22;3792;47.740;7.606;2023-10-19T16:15:01;16.70;99.90